sensor_id;sensor_type;location;lat;lon;timestamp;pressure;altitude;pressure_sealevel;temperature;humidity
19761;BME280;10039;42.632;23.408;2023-09-19T00:00:34;95378.56;;;18.00;65.82
19761;BME280;10039;42.632;23.408;2023-09-19T00:03:01;95374.09;;;18.15;65.92
19761;BME280;10039;42.632;23.408;2023-09-19T00:05:28;95374.72;;;18.19;65.79
19761;BME280;10039;42.632;23.408;2023-09-19T00:07:56;95359.56;;;18.13;65.22
19761;BME280;10039;42.632;23.408;2023-09-19T00:10:25;95362.41;;;18.18;65.29
19761;BME280;10039;42.632;23.408;2023-09-19T00:12:53;95355.50;;;18.17;65.22
19761;BME280;10039;42.632;23.408;2023-09-19T00:15:22;95340.63;;;18.04;64.79
19761;BME280;10039;42.632;23.408;2023-09-19T00:17:48;95381.66;;;18.29;65.17
19761;BME280;10039;42.632;23.408;2023-09-19T00:20:14;95378.50;;;18.31;65.04
19761;BME280;10039;42.632;23.408;2023-09-19T00:22:44;95381.34;;;18.36;65.08
19761;BME280;10039;42.632;23.408;2023-09-19T00:25:10;95351.59;;;18.18;64.80
19761;BME280;10039;42.632;23.408;2023-09-19T00:27:38;95369.66;;;18.30;64.95
19761;BME280;10039;42.632;23.408;2023-09-19T00:30:09;95363.94;;;18.28;65.09
19761;BME280;10039;42.632;23.408;2023-09-19T00:32:50;95362.72;;;18.20;65.46
19761;BME280;10039;42.632;23.408;2023-09-19T00:35:20;95366.94;;;18.30;65.31
19761;BME280;10039;42.632;23.408;2023-09-19T00:37:49;95366.66;;;18.28;65.47
19761;BME280;10039;42.632;23.408;2023-09-19T00:40:15;95349.84;;;18.24;65.47
19761;BME280;10039;42.632;23.408;2023-09-19T00:42:42;95351.75;;;18.15;65.32
19761;BME280;10039;42.632;23.408;2023-09-19T00:45:08;95351.75;;;18.15;65.91
19761;BME280;10039;42.632;23.408;2023-09-19T00:47:51;95347.97;;;18.12;65.51
19761;BME280;10039;42.632;23.408;2023-09-19T00:50:22;95370.56;;;18.27;65.82
19761;BME280;10039;42.632;23.408;2023-09-19T00:52:50;95334.47;;;18.03;65.58
19761;BME280;10039;42.632;23.408;2023-09-19T00:55:18;95355.50;;;18.17;65.52
19761;BME280;10039;42.632;23.408;2023-09-19T00:57:45;95340.03;;;18.18;65.88
19761;BME280;10039;42.632;23.408;2023-09-19T01:00:12;95358.69;;;18.25;65.54
19761;BME280;10039;42.632;23.408;2023-09-19T01:02:44;95333.88;;;18.08;65.69
19761;BME280;10039;42.632;23.408;2023-09-19T01:05:10;95351.94;;;18.29;65.38
19761;BME280;10039;42.632;23.408;2023-09-19T01:07:36;95357.47;;;18.26;65.58
19761;BME280;10039;42.632;23.408;2023-09-19T01:10:08;95354.47;;;18.15;65.88
19761;BME280;10039;42.632;23.408;2023-09-19T01:21:23;95349.44;;;17.78;67.28
19761;BME280;10039;42.632;23.408;2023-09-19T01:27:40;95346.06;;;17.47;68.16
19761;BME280;10039;42.632;23.408;2023-09-19T01:30:21;95329.88;;;16.86;69.65
19761;BME280;10039;42.632;23.408;2023-09-19T01:32:51;95339.47;;;16.87;69.32
19761;BME280;10039;42.632;23.408;2023-09-19T01:35:18;95350.66;;;17.07;69.92
19761;BME280;10039;42.632;23.408;2023-09-19T01:37:44;95330.25;;;16.97;69.67
19761;BME280;10039;42.632;23.408;2023-09-19T01:40:14;95349.19;;;17.36;69.15
19761;BME280;10039;42.632;23.408;2023-09-19T01:51:10;95346.94;;;17.44;68.71
19761;BME280;10039;42.632;23.408;2023-09-19T01:53:44;95342.31;;;17.44;68.30
19761;BME280;10039;42.632;23.408;2023-09-19T01:56:23;95338.13;;;17.43;68.60
19761;BME280;10039;42.632;23.408;2023-09-19T01:58:55;95315.59;;;17.37;68.33
19761;BME280;10039;42.632;23.408;2023-09-19T02:01:22;95348.03;;;17.55;68.13
19761;BME280;10039;42.632;23.408;2023-09-19T02:03:50;95324.75;;;17.40;68.17
19761;BME280;10039;42.632;23.408;2023-09-19T02:06:17;95346.25;;;17.61;68.50
19761;BME280;10039;42.632;23.408;2023-09-19T02:08:44;95344.91;;;17.57;68.40
19761;BME280;10039;42.632;23.408;2023-09-19T02:11:11;95373.56;;;17.63;68.42
19761;BME280;10039;42.632;23.408;2023-09-19T02:13:37;95354.16;;;17.47;68.37
19761;BME280;10039;42.632;23.408;2023-09-19T02:16:03;95335.56;;;17.49;67.99
19761;BME280;10039;42.632;23.408;2023-09-19T02:18:30;95345.44;;;17.43;68.05
19761;BME280;10039;42.632;23.408;2023-09-19T02:20:56;95319.03;;;17.38;67.74
19761;BME280;10039;42.632;23.408;2023-09-19T02:23:24;95345.47;;;17.52;67.90
19761;BME280;10039;42.632;23.408;2023-09-19T02:25:54;95335.25;;;17.47;68.07
19761;BME280;10039;42.632;23.408;2023-09-19T02:28:21;95342.78;;;17.52;68.09
19761;BME280;10039;42.632;23.408;2023-09-19T02:30:48;95325.34;;;17.44;67.88
19761;BME280;10039;42.632;23.408;2023-09-19T02:33:22;95355.50;;;17.42;68.29
19761;BME280;10039;42.632;23.408;2023-09-19T02:35:48;95316.53;;;17.13;68.58
19761;BME280;10039;42.632;23.408;2023-09-19T02:38:14;95347.38;;;17.33;68.88
19761;BME280;10039;42.632;23.408;2023-09-19T02:40:47;95318.03;;;17.14;68.95
19761;BME280;10039;42.632;23.408;2023-09-19T02:43:12;95344.03;;;17.29;68.94
19761;BME280;10039;42.632;23.408;2023-09-19T02:45:38;95334.41;;;17.28;68.69
19761;BME280;10039;42.632;23.408;2023-09-19T02:48:04;95324.50;;;17.25;68.87
19761;BME280;10039;42.632;23.408;2023-09-19T02:50:30;95319.38;;;17.09;69.37
19761;BME280;10039;42.632;23.408;2023-09-19T02:52:56;95307.19;;;16.96;69.56
19761;BME280;10039;42.632;23.408;2023-09-19T02:55:22;95296.19;;;16.82;69.76
19761;BME280;10039;42.632;23.408;2023-09-19T02:57:54;95315.44;;;17.01;69.42
19761;BME280;10039;42.632;23.408;2023-09-19T03:00:23;95266.63;;;16.78;69.53
19761;BME280;10039;42.632;23.408;2023-09-19T03:02:52;95298.22;;;16.99;69.03
19761;BME280;10039;42.632;23.408;2023-09-19T03:05:19;95308.69;;;17.06;68.93
19761;BME280;10039;42.632;23.408;2023-09-19T03:07:47;95303.50;;;17.11;68.93
19761;BME280;10039;42.632;23.408;2023-09-19T03:10:17;95306.31;;;17.08;68.75
19761;BME280;10039;42.632;23.408;2023-09-19T03:12:43;95285.56;;;16.87;68.96
19761;BME280;10039;42.632;23.408;2023-09-19T03:15:09;95287.53;;;16.95;69.21
19761;BME280;10039;42.632;23.408;2023-09-19T03:17:35;95284.84;;;16.95;68.84
19761;BME280;10039;42.632;23.408;2023-09-19T03:20:02;95297.06;;;17.18;68.97
19761;BME280;10039;42.632;23.408;2023-09-19T03:22:28;95302.63;;;17.23;68.94
19761;BME280;10039;42.632;23.408;2023-09-19T03:24:54;95300.78;;;17.11;69.73
19761;BME280;10039;42.632;23.408;2023-09-19T03:27:20;95305.38;;;16.93;69.74
19761;BME280;10039;42.632;23.408;2023-09-19T03:29:48;95316.84;;;17.15;69.43
19761;BME280;10039;42.632;23.408;2023-09-19T03:32:14;95281.84;;;16.93;69.52
19761;BME280;10039;42.632;23.408;2023-09-19T03:34:40;95285.72;;;16.92;69.46
19761;BME280;10039;42.632;23.408;2023-09-19T03:37:08;95296.13;;;17.03;69.36
19761;BME280;10039;42.632;23.408;2023-09-19T03:39:34;95301.06;;;17.04;69.26
19761;BME280;10039;42.632;23.408;2023-09-19T03:42:01;95303.03;;;17.04;69.43
19761;BME280;10039;42.632;23.408;2023-09-19T03:44:28;95285.88;;;16.89;69.64
19761;BME280;10039;42.632;23.408;2023-09-19T03:46:54;95265.72;;;16.72;69.35
19761;BME280;10039;42.632;23.408;2023-09-19T03:49:22;95318.28;;;16.98;69.53
19761;BME280;10039;42.632;23.408;2023-09-19T03:51:47;95286.00;;;16.86;69.04
19761;BME280;10039;42.632;23.408;2023-09-19T04:11:33;95326.88;;;18.97;62.17
19761;BME280;10039;42.632;23.408;2023-09-19T04:13:59;95307.47;;;18.39;63.33
19761;BME280;10039;42.632;23.408;2023-09-19T04:16:24;95336.44;;;18.12;64.02
19761;BME280;10039;42.632;23.408;2023-09-19T04:18:50;95305.00;;;17.70;65.50
19761;BME280;10039;42.632;23.408;2023-09-19T04:21:16;95334.38;;;17.50;66.46
19761;BME280;10039;42.632;23.408;2023-09-19T04:23:42;95290.75;;;17.12;66.94
19761;BME280;10039;42.632;23.408;2023-09-19T04:26:08;95339.13;;;17.37;67.61
19761;BME280;10039;42.632;23.408;2023-09-19T04:28:34;95340.84;;;17.22;67.83
19761;BME280;10039;42.632;23.408;2023-09-19T04:31:03;95341.53;;;17.04;68.46
19761;BME280;10039;42.632;23.408;2023-09-19T04:33:28;95337.72;;;16.93;68.81
19761;BME280;10039;42.632;23.408;2023-09-19T04:35:54;95334.19;;;16.75;69.45
19761;BME280;10039;42.632;23.408;2023-09-19T04:38:21;95321.81;;;16.65;69.63
19761;BME280;10039;42.632;23.408;2023-09-19T04:40:49;95318.16;;;16.71;69.32
19761;BME280;10039;42.632;23.408;2023-09-19T04:43:15;95287.94;;;16.55;69.63
19761;BME280;10039;42.632;23.408;2023-09-19T04:45:41;95305.34;;;16.63;69.62
19761;BME280;10039;42.632;23.408;2023-09-19T04:48:07;95335.81;;;16.72;71.25
19761;BME280;10039;42.632;23.408;2023-09-19T04:50:34;95343.13;;;16.72;70.65
19761;BME280;10039;42.632;23.408;2023-09-19T04:53:00;95318.41;;;16.64;70.57
19761;BME280;10039;42.632;23.408;2023-09-19T04:55:26;95300.09;;;16.59;70.76
19761;BME280;10039;42.632;23.408;2023-09-19T04:57:52;95336.16;;;16.83;70.96
19761;BME280;10039;42.632;23.408;2023-09-19T05:00:22;95319.81;;;16.78;70.85
19761;BME280;10039;42.632;23.408;2023-09-19T05:02:50;95326.31;;;16.89;70.89
19761;BME280;10039;42.632;23.408;2023-09-19T05:05:18;95290.81;;;16.60;71.17
19761;BME280;10039;42.632;23.408;2023-09-19T05:07:51;95305.72;;;16.74;71.56
19761;BME280;10039;42.632;23.408;2023-09-19T05:10:19;95318.03;;;16.53;72.31
19761;BME280;10039;42.632;23.408;2023-09-19T05:12:45;95299.72;;;16.48;72.41
19761;BME280;10039;42.632;23.408;2023-09-19T05:15:13;95314.50;;;16.65;72.59
19761;BME280;10039;42.632;23.408;2023-09-19T05:17:52;95295.44;;;16.60;72.03
19761;BME280;10039;42.632;23.408;2023-09-19T05:20:23;95270.69;;;16.52;72.38
19761;BME280;10039;42.632;23.408;2023-09-19T05:23:04;95288.75;;;16.64;72.01
19761;BME280;10039;42.632;23.408;2023-09-19T05:25:36;95321.06;;;16.86;72.04
19761;BME280;10039;42.632;23.408;2023-09-19T05:28:09;95302.66;;;16.41;72.51
19761;BME280;10039;42.632;23.408;2023-09-19T05:30:37;95287.63;;;16.53;72.49
19761;BME280;10039;42.632;23.408;2023-09-19T05:33:05;95285.13;;;16.58;72.20
19761;BME280;10039;42.632;23.408;2023-09-19T05:35:31;95292.81;;;16.69;72.18
19761;BME280;10039;42.632;23.408;2023-09-19T05:37:57;95308.53;;;17.00;72.05
19761;BME280;10039;42.632;23.408;2023-09-19T05:40:26;95298.97;;;17.08;71.53
19761;BME280;10039;42.632;23.408;2023-09-19T05:42:52;95265.69;;;17.02;70.44
19761;BME280;10039;42.632;23.408;2023-09-19T05:45:24;95284.41;;;17.36;69.89
19761;BME280;10039;42.632;23.408;2023-09-19T05:47:51;95274.66;;;17.39;69.74
19761;BME280;10039;42.632;23.408;2023-09-19T05:50:21;95278.41;;;17.32;70.09
19761;BME280;10039;42.632;23.408;2023-09-19T05:52:53;95301.84;;;17.62;69.87
19761;BME280;10039;42.632;23.408;2023-09-19T05:55:19;95287.00;;;17.49;70.04
19761;BME280;10039;42.632;23.408;2023-09-19T05:57:50;95285.81;;;17.59;69.74
19761;BME280;10039;42.632;23.408;2023-09-19T06:00:17;95288.94;;;17.57;69.85
19761;BME280;10039;42.632;23.408;2023-09-19T06:02:43;95284.47;;;17.63;70.06
19761;BME280;10039;42.632;23.408;2023-09-19T06:05:10;95293.63;;;17.84;69.67
19761;BME280;10039;42.632;23.408;2023-09-19T06:07:36;95280.28;;;17.98;69.16
19761;BME280;10039;42.632;23.408;2023-09-19T06:10:03;95268.75;;;17.89;68.63
19761;BME280;10039;42.632;23.408;2023-09-19T06:12:31;95273.41;;;18.06;68.72
19761;BME280;10039;42.632;23.408;2023-09-19T06:15:00;95280.16;;;18.28;67.75
19761;BME280;10039;42.632;23.408;2023-09-19T06:17:26;95271.13;;;18.22;67.64
19761;BME280;10039;42.632;23.408;2023-09-19T06:19:52;95245.03;;;17.84;67.66
19761;BME280;10039;42.632;23.408;2023-09-19T06:22:18;95265.44;;;17.76;69.33
19761;BME280;10039;42.632;23.408;2023-09-19T06:24:44;95252.50;;;17.53;69.15
19761;BME280;10039;42.632;23.408;2023-09-19T06:27:12;95279.34;;;17.56;70.57
19761;BME280;10039;42.632;23.408;2023-09-19T06:29:38;95281.66;;;17.85;70.35
19761;BME280;10039;42.632;23.408;2023-09-19T06:32:10;95283.16;;;18.12;69.54
19761;BME280;10039;42.632;23.408;2023-09-19T06:34:37;95288.25;;;18.37;69.48
19761;BME280;10039;42.632;23.408;2023-09-19T06:37:08;95265.72;;;18.49;68.36
19761;BME280;10039;42.632;23.408;2023-09-19T06:39:34;95269.59;;;18.57;67.99
19761;BME280;10039;42.632;23.408;2023-09-19T06:41:59;95242.41;;;18.52;66.92
19761;BME280;10039;42.632;23.408;2023-09-19T06:44:27;95271.00;;;18.35;66.36
19761;BME280;10039;42.632;23.408;2023-09-19T06:46:53;95276.34;;;18.53;67.99
19761;BME280;10039;42.632;23.408;2023-09-19T06:49:19;95273.13;;;18.81;67.39
19761;BME280;10039;42.632;23.408;2023-09-19T06:51:45;95254.22;;;18.72;66.57
19761;BME280;10039;42.632;23.408;2023-09-19T06:54:10;95287.22;;;18.94;66.37
19761;BME280;10039;42.632;23.408;2023-09-19T06:56:36;95291.97;;;19.17;66.43
19761;BME280;10039;42.632;23.408;2023-09-19T06:59:02;95294.28;;;19.33;65.76
19761;BME280;10039;42.632;23.408;2023-09-19T07:01:31;95273.19;;;19.46;65.38
19761;BME280;10039;42.632;23.408;2023-09-19T07:03:57;95279.19;;;19.50;64.85
19761;BME280;10039;42.632;23.408;2023-09-19T07:06:23;95268.94;;;19.54;64.46
19761;BME280;10039;42.632;23.408;2023-09-19T07:08:49;95283.59;;;19.85;63.95
19761;BME280;10039;42.632;23.408;2023-09-19T07:11:15;95282.22;;;19.90;63.63
19761;BME280;10039;42.632;23.408;2023-09-19T07:13:41;95289.66;;;20.04;62.97
19761;BME280;10039;42.632;23.408;2023-09-19T07:16:06;95299.41;;;19.87;63.07
19761;BME280;10039;42.632;23.408;2023-09-19T07:18:34;95299.31;;;19.96;63.73
19761;BME280;10039;42.632;23.408;2023-09-19T07:21:00;95295.59;;;20.17;63.90
19761;BME280;10039;42.632;23.408;2023-09-19T07:23:30;95278.13;;;20.18;62.34
19761;BME280;10039;42.632;23.408;2023-09-19T07:26:02;95276.94;;;20.33;62.07
19761;BME280;10039;42.632;23.408;2023-09-19T07:28:30;95291.41;;;20.30;62.24
19761;BME280;10039;42.632;23.408;2023-09-19T07:30:56;95255.38;;;20.15;62.51
19761;BME280;10039;42.632;23.408;2023-09-19T07:33:22;95288.13;;;20.26;62.00
19761;BME280;10039;42.632;23.408;2023-09-19T07:35:50;95294.22;;;20.35;61.82
19761;BME280;10039;42.632;23.408;2023-09-19T07:38:16;95267.09;;;20.35;61.50
19761;BME280;10039;42.632;23.408;2023-09-19T07:40:41;95293.50;;;20.49;61.17
19761;BME280;10039;42.632;23.408;2023-09-19T07:43:07;95289.38;;;20.54;61.30
19761;BME280;10039;42.632;23.408;2023-09-19T07:45:34;95287.59;;;20.65;62.03
19761;BME280;10039;42.632;23.408;2023-09-19T07:47:59;95289.94;;;20.72;61.41
19761;BME280;10039;42.632;23.408;2023-09-19T07:50:34;95273.31;;;20.79;61.33
19761;BME280;10039;42.632;23.408;2023-09-19T07:53:03;95266.22;;;20.82;60.57
19761;BME280;10039;42.632;23.408;2023-09-19T07:55:30;95293.06;;;20.94;59.59
19761;BME280;10039;42.632;23.408;2023-09-19T07:57:56;95291.19;;;21.00;61.16
19761;BME280;10039;42.632;23.408;2023-09-19T08:00:21;95286.34;;;21.24;60.36
19761;BME280;10039;42.632;23.408;2023-09-19T08:02:47;95284.81;;;21.03;59.47
19761;BME280;10039;42.632;23.408;2023-09-19T08:05:13;95283.41;;;20.93;60.57
19761;BME280;10039;42.632;23.408;2023-09-19T08:07:44;95277.41;;;21.18;60.34
19761;BME280;10039;42.632;23.408;2023-09-19T08:10:14;95293.19;;;21.34;60.02
19761;BME280;10039;42.632;23.408;2023-09-19T08:12:43;95283.84;;;21.55;59.31
19761;BME280;10039;42.632;23.408;2023-09-19T08:15:18;95271.19;;;21.52;59.02
19761;BME280;10039;42.632;23.408;2023-09-19T08:17:45;95287.34;;;21.75;58.63
19761;BME280;10039;42.632;23.408;2023-09-19T08:20:12;95240.34;;;21.69;58.05
19761;BME280;10039;42.632;23.408;2023-09-19T08:22:52;95272.75;;;21.93;57.56
19761;BME280;10039;42.632;23.408;2023-09-19T08:25:20;95272.47;;;21.91;57.58
19761;BME280;10039;42.632;23.408;2023-09-19T08:27:47;95260.47;;;21.97;57.45
19761;BME280;10039;42.632;23.408;2023-09-19T08:30:23;95262.75;;;22.04;57.45
19761;BME280;10039;42.632;23.408;2023-09-19T08:32:50;95264.25;;;22.25;56.85
19761;BME280;10039;42.632;23.408;2023-09-19T08:35:15;95260.56;;;22.08;56.22
19761;BME280;10039;42.632;23.408;2023-09-19T08:37:42;95237.69;;;21.95;57.38
19761;BME280;10039;42.632;23.408;2023-09-19T08:40:10;95255.78;;;21.98;56.70
19761;BME280;10039;42.632;23.408;2023-09-19T08:45:14;95264.47;;;22.02;58.32
19761;BME280;10039;42.632;23.408;2023-09-19T08:47:46;95257.53;;;22.01;58.14
19761;BME280;10039;42.632;23.408;2023-09-19T08:50:25;95267.50;;;22.29;58.33
19761;BME280;10039;42.632;23.408;2023-09-19T08:52:52;95244.16;;;22.23;56.39
19761;BME280;10039;42.632;23.408;2023-09-19T08:55:23;95252.84;;;22.47;57.34
19761;BME280;10039;42.632;23.408;2023-09-19T08:57:52;95264.06;;;22.54;56.97
19761;BME280;10039;42.632;23.408;2023-09-19T09:00:26;95240.81;;;22.33;56.43
19761;BME280;10039;42.632;23.408;2023-09-19T09:02:54;95248.91;;;22.48;55.57
19761;BME280;10039;42.632;23.408;2023-09-19T09:05:22;95240.09;;;22.33;56.17
19761;BME280;10039;42.632;23.408;2023-09-19T09:07:52;95243.09;;;22.60;56.80
19761;BME280;10039;42.632;23.408;2023-09-19T09:10:21;95246.97;;;22.79;56.79
19761;BME280;10039;42.632;23.408;2023-09-19T09:12:53;95247.78;;;22.90;55.79
19761;BME280;10039;42.632;23.408;2023-09-19T09:15:21;95231.91;;;22.83;55.73
19761;BME280;10039;42.632;23.408;2023-09-19T09:17:49;95240.00;;;23.03;55.81
19761;BME280;10039;42.632;23.408;2023-09-19T09:20:16;95225.56;;;22.97;55.19
19761;BME280;10039;42.632;23.408;2023-09-19T09:22:56;95226.84;;;22.71;55.07
19761;BME280;10039;42.632;23.408;2023-09-19T09:25:53;95226.78;;;22.91;55.29
19761;BME280;10039;42.632;23.408;2023-09-19T09:28:22;95216.78;;;22.82;56.13
19761;BME280;10039;42.632;23.408;2023-09-19T09:30:47;95231.88;;;23.09;55.06
19761;BME280;10039;42.632;23.408;2023-09-19T09:33:14;95232.63;;;23.09;54.74
19761;BME280;10039;42.632;23.408;2023-09-19T09:35:56;95220.25;;;23.08;54.74
19761;BME280;10039;42.632;23.408;2023-09-19T09:38:43;95227.69;;;23.13;54.25
19761;BME280;10039;42.632;23.408;2023-09-19T09:41:09;95219.59;;;23.24;55.07
19761;BME280;10039;42.632;23.408;2023-09-19T09:43:37;95212.47;;;23.32;54.67
19761;BME280;10039;42.632;23.408;2023-09-19T09:46:13;95195.84;;;23.30;53.98
19761;BME280;10039;42.632;23.408;2023-09-19T09:49:10;95193.66;;;23.34;54.07
19761;BME280;10039;42.632;23.408;2023-09-19T09:52:04;95204.09;;;23.41;53.98
19761;BME280;10039;42.632;23.408;2023-09-19T09:54:37;95194.22;;;23.49;54.39
19761;BME280;10039;42.632;23.408;2023-09-19T09:57:07;95194.19;;;23.38;53.99
19761;BME280;10039;42.632;23.408;2023-09-19T10:02:16;95183.38;;;23.60;54.09
19761;BME280;10039;42.632;23.408;2023-09-19T10:04:46;95175.47;;;23.68;54.12
19761;BME280;10039;42.632;23.408;2023-09-19T10:07:25;95185.13;;;23.63;54.13
19761;BME280;10039;42.632;23.408;2023-09-19T10:09:53;95185.41;;;23.76;54.38
19761;BME280;10039;42.632;23.408;2023-09-19T10:12:24;95189.34;;;23.70;53.76
19761;BME280;10039;42.632;23.408;2023-09-19T10:14:55;95181.94;;;23.76;53.64
19761;BME280;10039;42.632;23.408;2023-09-19T10:17:23;95177.03;;;23.85;53.40
19761;BME280;10039;42.632;23.408;2023-09-19T10:19:55;95151.25;;;23.86;54.25
19761;BME280;10039;42.632;23.408;2023-09-19T10:22:26;95171.38;;;23.99;53.47
19761;BME280;10039;42.632;23.408;2023-09-19T10:24:53;95176.63;;;24.25;53.53
19761;BME280;10039;42.632;23.408;2023-09-19T10:27:20;95173.94;;;24.36;52.50
19761;BME280;10039;42.632;23.408;2023-09-19T10:29:51;95168.72;;;24.43;52.40
19761;BME280;10039;42.632;23.408;2023-09-19T10:32:22;95156.59;;;24.50;51.61
19761;BME280;10039;42.632;23.408;2023-09-19T10:34:49;95166.00;;;24.54;51.41
19761;BME280;10039;42.632;23.408;2023-09-19T10:37:16;95157.34;;;24.56;51.27
19761;BME280;10039;42.632;23.408;2023-09-19T10:39:46;95162.56;;;24.65;51.91
19761;BME280;10039;42.632;23.408;2023-09-19T10:42:17;95143.44;;;24.59;51.11
19761;BME280;10039;42.632;23.408;2023-09-19T10:44:45;95138.47;;;24.69;52.20
19761;BME280;10039;42.632;23.408;2023-09-19T10:47:11;95128.53;;;24.77;51.25
19761;BME280;10039;42.632;23.408;2023-09-19T10:49:44;95137.91;;;25.03;51.19
19761;BME280;10039;42.632;23.408;2023-09-19T10:52:15;95144.88;;;25.20;51.06
19761;BME280;10039;42.632;23.408;2023-09-19T10:54:49;95143.88;;;25.23;50.00
19761;BME280;10039;42.632;23.408;2023-09-19T10:57:21;95146.34;;;25.10;50.02
19761;BME280;10039;42.632;23.408;2023-09-19T11:00:06;95140.66;;;25.03;50.32
19761;BME280;10039;42.632;23.408;2023-09-19T11:03:22;95139.16;;;25.13;51.00
19761;BME280;10039;42.632;23.408;2023-09-19T11:06:09;95137.91;;;25.19;50.23
19761;BME280;10039;42.632;23.408;2023-09-19T11:09:00;95142.38;;;25.22;49.92
19761;BME280;10039;42.632;23.408;2023-09-19T11:11:42;95131.44;;;25.22;49.50
19761;BME280;10039;42.632;23.408;2023-09-19T11:16:40;95113.34;;;25.14;49.55
19761;BME280;10039;42.632;23.408;2023-09-19T11:30:49;95113.78;;;25.29;49.43
19761;BME280;10039;42.632;23.408;2023-09-19T11:36:10;95103.28;;;25.44;49.83
19761;BME280;10039;42.632;23.408;2023-09-19T11:46:24;95092.69;;;25.07;48.68
19761;BME280;10039;42.632;23.408;2023-09-19T11:48:51;95069.56;;;25.25;50.61
19761;BME280;10039;42.632;23.408;2023-09-19T11:53:47;95074.66;;;25.50;49.15
19761;BME280;10039;42.632;23.408;2023-09-19T11:56:16;95075.84;;;25.66;49.32
19761;BME280;10039;42.632;23.408;2023-09-19T11:58:44;95074.78;;;25.80;50.01
19761;BME280;10039;42.632;23.408;2023-09-19T12:01:13;95065.28;;;25.86;49.72
19761;BME280;10039;42.632;23.408;2023-09-19T12:03:43;95064.28;;;25.89;48.18
19761;BME280;10039;42.632;23.408;2023-09-19T12:06:14;95076.31;;;26.10;49.14
19761;BME280;10039;42.632;23.408;2023-09-19T12:08:41;95063.03;;;25.90;47.22
19761;BME280;10039;42.632;23.408;2023-09-19T12:11:14;95077.22;;;25.89;47.22
19761;BME280;10039;42.632;23.408;2023-09-19T12:13:42;95066.81;;;25.76;48.87
19761;BME280;10039;42.632;23.408;2023-09-19T12:16:21;95063.53;;;25.89;47.69
19761;BME280;10039;42.632;23.408;2023-09-19T12:18:48;95066.31;;;25.78;47.71
19761;BME280;10039;42.632;23.408;2023-09-19T12:21:30;95068.59;;;25.68;47.86
19761;BME280;10039;42.632;23.408;2023-09-19T12:24:12;95055.25;;;25.59;48.59
19761;BME280;10039;42.632;23.408;2023-09-19T12:26:43;95039.16;;;25.45;48.86
19761;BME280;10039;42.632;23.408;2023-09-19T12:29:12;95044.78;;;25.63;49.39
19761;BME280;10039;42.632;23.408;2023-09-19T12:31:51;95044.44;;;25.78;48.61
19761;BME280;10039;42.632;23.408;2023-09-19T12:34:19;95040.94;;;25.83;49.10
19761;BME280;10039;42.632;23.408;2023-09-19T12:36:46;95034.75;;;25.77;48.28
19761;BME280;10039;42.632;23.408;2023-09-19T12:39:22;95036.78;;;25.65;48.19
19761;BME280;10039;42.632;23.408;2023-09-19T12:41:50;95039.03;;;25.67;48.65
19761;BME280;10039;42.632;23.408;2023-09-19T12:44:18;95034.38;;;25.56;47.99
19761;BME280;10039;42.632;23.408;2023-09-19T12:46:44;95020.38;;;25.65;48.80
19761;BME280;10039;42.632;23.408;2023-09-19T12:49:17;95010.13;;;25.77;49.13
19761;BME280;10039;42.632;23.408;2023-09-19T12:51:45;95020.84;;;25.69;49.00
19761;BME280;10039;42.632;23.408;2023-09-19T12:54:10;95005.53;;;25.55;49.38
19761;BME280;10039;42.632;23.408;2023-09-19T12:56:40;95019.81;;;25.83;49.34
19761;BME280;10039;42.632;23.408;2023-09-19T12:59:16;95004.44;;;25.69;48.86
19761;BME280;10039;42.632;23.408;2023-09-19T13:01:42;95016.41;;;25.66;49.19
19761;BME280;10039;42.632;23.408;2023-09-19T13:04:19;94973.81;;;25.41;49.21
19761;BME280;10039;42.632;23.408;2023-09-19T13:06:51;95016.09;;;25.75;48.61
19761;BME280;10039;42.632;23.408;2023-09-19T13:09:22;94974.47;;;25.53;49.13
19761;BME280;10039;42.632;23.408;2023-09-19T13:11:50;94964.28;;;25.53;49.26
19761;BME280;10039;42.632;23.408;2023-09-19T13:17:06;94994.31;;;25.64;49.07
19761;BME280;10039;42.632;23.408;2023-09-19T13:19:43;94988.59;;;25.62;48.68
19761;BME280;10039;42.632;23.408;2023-09-19T13:22:42;95002.63;;;25.42;49.16
19761;BME280;10039;42.632;23.408;2023-09-19T13:25:18;95001.38;;;25.49;49.51
19761;BME280;10039;42.632;23.408;2023-09-19T13:27:45;94988.47;;;25.44;49.70
19761;BME280;10039;42.632;23.408;2023-09-19T13:30:13;94975.06;;;25.40;48.81
19761;BME280;10039;42.632;23.408;2023-09-19T13:32:39;94949.97;;;25.36;49.30
19761;BME280;10039;42.632;23.408;2023-09-19T13:35:07;94975.72;;;25.52;49.98
19761;BME280;10039;42.632;23.408;2023-09-19T13:37:38;94943.81;;;25.30;49.32
19761;BME280;10039;42.632;23.408;2023-09-19T13:40:08;94958.06;;;25.53;49.33
19761;BME280;10039;42.632;23.408;2023-09-19T13:42:34;94976.13;;;25.67;50.34
19761;BME280;10039;42.632;23.408;2023-09-19T13:45:02;94966.47;;;25.60;48.91
19761;BME280;10039;42.632;23.408;2023-09-19T13:47:29;94968.47;;;25.60;48.83
19761;BME280;10039;42.632;23.408;2023-09-19T13:49:54;94961.97;;;25.63;49.53
19761;BME280;10039;42.632;23.408;2023-09-19T13:52:24;94956.34;;;25.50;49.11
19761;BME280;10039;42.632;23.408;2023-09-19T13:54:53;94945.75;;;25.41;49.48
19761;BME280;10039;42.632;23.408;2023-09-19T13:57:19;94962.56;;;25.50;48.98
19761;BME280;10039;42.632;23.408;2023-09-19T13:59:45;94959.06;;;25.50;49.49
19761;BME280;10039;42.632;23.408;2023-09-19T14:02:11;94951.16;;;25.46;49.08
19761;BME280;10039;42.632;23.408;2023-09-19T14:04:40;94945.22;;;25.42;49.19
19761;BME280;10039;42.632;23.408;2023-09-19T14:07:06;94941.53;;;25.34;49.37
19761;BME280;10039;42.632;23.408;2023-09-19T14:09:33;94943.03;;;25.35;50.00
19761;BME280;10039;42.632;23.408;2023-09-19T14:11:59;94975.22;;;25.53;49.30
19761;BME280;10039;42.632;23.408;2023-09-19T14:14:25;94934.81;;;25.41;48.73